sensor_id;sensor_type;location;lat;lon;timestamp;P1;durP1;ratioP1;P2;durP2;ratioP2
72864;SDS011;61000;48.120;11.548;2023-03-12T00:00:08;6.82;;;6.00;;
72864;SDS011;61000;48.120;11.548;2023-03-12T00:02:36;8.68;;;5.63;;
72864;SDS011;61000;48.120;11.548;2023-03-12T00:05:03;7.10;;;5.57;;
72864;SDS011;61000;48.120;11.548;2023-03-12T00:07:31;9.63;;;5.90;;
72864;SDS011;61000;48.120;11.548;2023-03-12T00:10:00;9.02;;;6.15;;
72864;SDS011;61000;48.120;11.548;2023-03-12T00:12:27;8.82;;;5.43;;
72864;SDS011;61000;48.120;11.548;2023-03-12T00:14:55;9.60;;;5.25;;
72864;SDS011;61000;48.120;11.548;2023-03-12T00:17:22;6.82;;;5.13;;
72864;SDS011;61000;48.120;11.548;2023-03-12T00:19:50;10.25;;;5.10;;
72864;SDS011;61000;48.120;11.548;2023-03-12T00:22:17;7.32;;;4.82;;
72864;SDS011;61000;48.120;11.548;2023-03-12T00:24:48;8.02;;;5.72;;
72864;SDS011;61000;48.120;11.548;2023-03-12T00:27:16;9.70;;;5.25;;
72864;SDS011;61000;48.120;11.548;2023-03-12T00:29:43;9.18;;;4.97;;
72864;SDS011;61000;48.120;11.548;2023-03-12T00:32:11;7.57;;;5.25;;
72864;SDS011;61000;48.120;11.548;2023-03-12T00:34:38;7.78;;;5.00;;
72864;SDS011;61000;48.120;11.548;2023-03-12T00:37:05;6.88;;;5.03;;
72864;SDS011;61000;48.120;11.548;2023-03-12T00:39:39;6.75;;;5.05;;
72864;SDS011;61000;48.120;11.548;2023-03-12T00:42:06;7.50;;;5.32;;
72864;SDS011;61000;48.120;11.548;2023-03-12T00:44:33;8.57;;;5.80;;
72864;SDS011;61000;48.120;11.548;2023-03-12T00:47:00;7.97;;;5.47;;
72864;SDS011;61000;48.120;11.548;2023-03-12T00:49:28;6.93;;;5.22;;
72864;SDS011;61000;48.120;11.548;2023-03-12T00:51:55;10.00;;;5.88;;
72864;SDS011;61000;48.120;11.548;2023-03-12T00:54:22;6.85;;;5.22;;
72864;SDS011;61000;48.120;11.548;2023-03-12T00:56:48;6.68;;;5.03;;
72864;SDS011;61000;48.120;11.548;2023-03-12T00:59:15;6.35;;;4.88;;
72864;SDS011;61000;48.120;11.548;2023-03-12T01:01:42;7.22;;;5.13;;
72864;SDS011;61000;48.120;11.548;2023-03-12T01:04:10;9.00;;;5.50;;
72864;SDS011;61000;48.120;11.548;2023-03-12T01:06:38;7.85;;;5.03;;
72864;SDS011;61000;48.120;11.548;2023-03-12T01:09:06;6.65;;;5.30;;
72864;SDS011;61000;48.120;11.548;2023-03-12T01:11:34;7.50;;;5.18;;
72864;SDS011;61000;48.120;11.548;2023-03-12T01:14:02;8.10;;;5.65;;
72864;SDS011;61000;48.120;11.548;2023-03-12T01:16:31;6.43;;;4.97;;
72864;SDS011;61000;48.120;11.548;2023-03-12T01:18:59;8.13;;;5.57;;
72864;SDS011;61000;48.120;11.548;2023-03-12T01:21:27;7.68;;;5.15;;
72864;SDS011;61000;48.120;11.548;2023-03-12T01:23:56;6.50;;;5.30;;
72864;SDS011;61000;48.120;11.548;2023-03-12T01:26:23;8.07;;;4.93;;
72864;SDS011;61000;48.120;11.548;2023-03-12T01:28:50;5.75;;;4.75;;
72864;SDS011;61000;48.120;11.548;2023-03-12T01:31:17;8.02;;;4.55;;
72864;SDS011;61000;48.120;11.548;2023-03-12T01:33:47;5.25;;;4.50;;
72864;SDS011;61000;48.120;11.548;2023-03-12T01:36:15;5.55;;;4.70;;
72864;SDS011;61000;48.120;11.548;2023-03-12T01:38:43;4.57;;;4.13;;
72864;SDS011;61000;48.120;11.548;2023-03-12T01:41:11;6.75;;;4.63;;
72864;SDS011;61000;48.120;11.548;2023-03-12T01:43:38;5.32;;;4.30;;
72864;SDS011;61000;48.120;11.548;2023-03-12T01:46:19;4.90;;;3.65;;
72864;SDS011;61000;48.120;11.548;2023-03-12T01:48:50;6.03;;;4.00;;
72864;SDS011;61000;48.120;11.548;2023-03-12T01:51:21;6.30;;;4.13;;
72864;SDS011;61000;48.120;11.548;2023-03-12T01:53:52;6.57;;;4.60;;
72864;SDS011;61000;48.120;11.548;2023-03-12T01:56:24;6.10;;;4.30;;
72864;SDS011;61000;48.120;11.548;2023-03-12T01:58:55;7.53;;;4.80;;
72864;SDS011;61000;48.120;11.548;2023-03-12T02:01:25;5.70;;;4.22;;
72864;SDS011;61000;48.120;11.548;2023-03-12T02:03:54;4.93;;;4.10;;
72864;SDS011;61000;48.120;11.548;2023-03-12T02:06:25;8.65;;;4.70;;
72864;SDS011;61000;48.120;11.548;2023-03-12T02:08:58;4.15;;;3.30;;
72864;SDS011;61000;48.120;11.548;2023-03-12T02:11:29;5.38;;;3.92;;
72864;SDS011;61000;48.120;11.548;2023-03-12T02:13:56;6.07;;;4.05;;
72864;SDS011;61000;48.120;11.548;2023-03-12T02:16:24;8.43;;;4.50;;
72864;SDS011;61000;48.120;11.548;2023-03-12T02:18:52;4.53;;;4.05;;
72864;SDS011;61000;48.120;11.548;2023-03-12T02:21:22;5.97;;;4.07;;
72864;SDS011;61000;48.120;11.548;2023-03-12T02:23:54;7.07;;;3.83;;
72864;SDS011;61000;48.120;11.548;2023-03-12T02:26:29;4.93;;;4.40;;
72864;SDS011;61000;48.120;11.548;2023-03-12T02:28:59;4.22;;;3.83;;
72864;SDS011;61000;48.120;11.548;2023-03-12T02:31:27;4.38;;;3.90;;
72864;SDS011;61000;48.120;11.548;2023-03-12T02:33:58;4.38;;;3.97;;
72864;SDS011;61000;48.120;11.548;2023-03-12T02:36:25;4.63;;;4.15;;
72864;SDS011;61000;48.120;11.548;2023-03-12T02:38:52;7.38;;;5.43;;
72864;SDS011;61000;48.120;11.548;2023-03-12T02:41:21;5.43;;;4.22;;
72864;SDS011;61000;48.120;11.548;2023-03-12T02:43:54;9.40;;;4.40;;
72864;SDS011;61000;48.120;11.548;2023-03-12T02:46:25;4.82;;;4.22;;
72864;SDS011;61000;48.120;11.548;2023-03-12T02:48:54;6.57;;;3.85;;
72864;SDS011;61000;48.120;11.548;2023-03-12T02:51:21;7.05;;;4.30;;
72864;SDS011;61000;48.120;11.548;2023-03-12T02:53:48;6.28;;;4.40;;
72864;SDS011;61000;48.120;11.548;2023-03-12T02:56:19;4.80;;;4.38;;
72864;SDS011;61000;48.120;11.548;2023-03-12T02:58:47;4.47;;;4.07;;
72864;SDS011;61000;48.120;11.548;2023-03-12T03:01:15;5.32;;;4.28;;
72864;SDS011;61000;48.120;11.548;2023-03-12T03:03:43;5.88;;;4.22;;
72864;SDS011;61000;48.120;11.548;2023-03-12T03:06:10;5.85;;;4.25;;
72864;SDS011;61000;48.120;11.548;2023-03-12T03:08:37;9.23;;;4.22;;
72864;SDS011;61000;48.120;11.548;2023-03-12T03:11:04;5.10;;;4.00;;
72864;SDS011;61000;48.120;11.548;2023-03-12T03:13:36;7.18;;;4.75;;
72864;SDS011;61000;48.120;11.548;2023-03-12T03:16:03;7.25;;;4.43;;
72864;SDS011;61000;48.120;11.548;2023-03-12T03:18:32;7.40;;;5.00;;
72864;SDS011;61000;48.120;11.548;2023-03-12T03:21:00;6.57;;;4.30;;
72864;SDS011;61000;48.120;11.548;2023-03-12T03:23:30;8.20;;;4.90;;
72864;SDS011;61000;48.120;11.548;2023-03-12T03:25:58;6.70;;;4.80;;
72864;SDS011;61000;48.120;11.548;2023-03-12T03:28:27;8.40;;;5.30;;
72864;SDS011;61000;48.120;11.548;2023-03-12T03:30:56;7.15;;;5.30;;
72864;SDS011;61000;48.120;11.548;2023-03-12T03:33:27;10.00;;;5.60;;
72864;SDS011;61000;48.120;11.548;2023-03-12T03:35:56;8.98;;;6.22;;
72864;SDS011;61000;48.120;11.548;2023-03-12T03:38:25;6.80;;;5.30;;
72864;SDS011;61000;48.120;11.548;2023-03-12T03:40:54;7.47;;;5.43;;
72864;SDS011;61000;48.120;11.548;2023-03-12T03:43:21;8.15;;;5.88;;
72864;SDS011;61000;48.120;11.548;2023-03-12T03:45:49;7.43;;;5.22;;
72864;SDS011;61000;48.120;11.548;2023-03-12T03:48:22;8.27;;;5.55;;
72864;SDS011;61000;48.120;11.548;2023-03-12T03:50:49;12.18;;;5.80;;
72864;SDS011;61000;48.120;11.548;2023-03-12T03:53:17;7.13;;;5.70;;
72864;SDS011;61000;48.120;11.548;2023-03-12T03:55:44;9.30;;;6.53;;
72864;SDS011;61000;48.120;11.548;2023-03-12T03:58:12;8.57;;;5.85;;
72864;SDS011;61000;48.120;11.548;2023-03-12T04:00:39;9.18;;;6.00;;
72864;SDS011;61000;48.120;11.548;2023-03-12T04:03:09;9.88;;;5.63;;
72864;SDS011;61000;48.120;11.548;2023-03-12T04:05:35;8.07;;;5.60;;
72864;SDS011;61000;48.120;11.548;2023-03-12T04:08:02;8.52;;;5.93;;
72864;SDS011;61000;48.120;11.548;2023-03-12T04:10:32;8.52;;;6.05;;
72864;SDS011;61000;48.120;11.548;2023-03-12T04:12:59;9.55;;;6.13;;
72864;SDS011;61000;48.120;11.548;2023-03-12T04:15:26;7.57;;;5.70;;
72864;SDS011;61000;48.120;11.548;2023-03-12T04:17:53;8.20;;;6.13;;
72864;SDS011;61000;48.120;11.548;2023-03-12T04:20:20;9.02;;;6.00;;
72864;SDS011;61000;48.120;11.548;2023-03-12T04:22:47;9.23;;;6.55;;
72864;SDS011;61000;48.120;11.548;2023-03-12T04:25:15;8.50;;;6.53;;
72864;SDS011;61000;48.120;11.548;2023-03-12T04:27:43;7.72;;;6.50;;
72864;SDS011;61000;48.120;11.548;2023-03-12T04:30:10;9.55;;;6.28;;
72864;SDS011;61000;48.120;11.548;2023-03-12T04:32:38;8.02;;;6.10;;
72864;SDS011;61000;48.120;11.548;2023-03-12T04:35:05;8.57;;;6.15;;
72864;SDS011;61000;48.120;11.548;2023-03-12T04:37:32;8.32;;;6.85;;
72864;SDS011;61000;48.120;11.548;2023-03-12T04:40:00;8.38;;;6.03;;
72864;SDS011;61000;48.120;11.548;2023-03-12T04:42:32;7.70;;;6.55;;
72864;SDS011;61000;48.120;11.548;2023-03-12T04:45:00;9.85;;;7.13;;
72864;SDS011;61000;48.120;11.548;2023-03-12T04:47:28;10.18;;;7.13;;
72864;SDS011;61000;48.120;11.548;2023-03-12T04:49:56;11.20;;;6.53;;
72864;SDS011;61000;48.120;11.548;2023-03-12T04:52:23;11.13;;;7.18;;
72864;SDS011;61000;48.120;11.548;2023-03-12T04:54:51;10.90;;;7.32;;
72864;SDS011;61000;48.120;11.548;2023-03-12T04:57:18;8.27;;;6.20;;
72864;SDS011;61000;48.120;11.548;2023-03-12T04:59:45;11.35;;;5.78;;
72864;SDS011;61000;48.120;11.548;2023-03-12T05:02:13;11.45;;;6.43;;
72864;SDS011;61000;48.120;11.548;2023-03-12T05:04:40;9.88;;;6.60;;
72864;SDS011;61000;48.120;11.548;2023-03-12T05:07:07;9.65;;;6.75;;
72864;SDS011;61000;48.120;11.548;2023-03-12T05:09:34;8.48;;;6.15;;
72864;SDS011;61000;48.120;11.548;2023-03-12T05:12:02;11.40;;;7.22;;
72864;SDS011;61000;48.120;11.548;2023-03-12T05:14:30;10.52;;;7.28;;
72864;SDS011;61000;48.120;11.548;2023-03-12T05:16:57;10.93;;;6.75;;
72864;SDS011;61000;48.120;11.548;2023-03-12T05:19:26;10.82;;;7.53;;
72864;SDS011;61000;48.120;11.548;2023-03-12T05:21:52;10.13;;;7.10;;
72864;SDS011;61000;48.120;11.548;2023-03-12T05:24:20;12.80;;;7.65;;
72864;SDS011;61000;48.120;11.548;2023-03-12T05:26:47;7.30;;;5.97;;
72864;SDS011;61000;48.120;11.548;2023-03-12T05:29:16;9.70;;;5.85;;
72864;SDS011;61000;48.120;11.548;2023-03-12T05:31:43;9.18;;;6.18;;
72864;SDS011;61000;48.120;11.548;2023-03-12T05:34:11;9.98;;;6.43;;
72864;SDS011;61000;48.120;11.548;2023-03-12T05:36:42;9.60;;;5.97;;
72864;SDS011;61000;48.120;11.548;2023-03-12T05:39:11;7.90;;;6.00;;
72864;SDS011;61000;48.120;11.548;2023-03-12T05:41:38;7.65;;;5.65;;
72864;SDS011;61000;48.120;11.548;2023-03-12T05:44:10;8.30;;;5.88;;
72864;SDS011;61000;48.120;11.548;2023-03-12T05:46:42;6.45;;;5.35;;
72864;SDS011;61000;48.120;11.548;2023-03-12T05:49:09;9.70;;;6.22;;
72864;SDS011;61000;48.120;11.548;2023-03-12T05:51:36;7.20;;;5.40;;
72864;SDS011;61000;48.120;11.548;2023-03-12T05:54:05;7.68;;;5.50;;
72864;SDS011;61000;48.120;11.548;2023-03-12T05:56:32;10.38;;;6.00;;
72864;SDS011;61000;48.120;11.548;2023-03-12T05:59:02;9.95;;;5.45;;
72864;SDS011;61000;48.120;11.548;2023-03-12T06:01:29;8.00;;;6.13;;
72864;SDS011;61000;48.120;11.548;2023-03-12T06:03:59;8.07;;;5.68;;
72864;SDS011;61000;48.120;11.548;2023-03-12T06:06:28;7.35;;;5.97;;
72864;SDS011;61000;48.120;11.548;2023-03-12T06:08:56;6.70;;;5.40;;
72864;SDS011;61000;48.120;11.548;2023-03-12T06:11:24;8.13;;;5.47;;
72864;SDS011;61000;48.120;11.548;2023-03-12T06:13:52;9.55;;;6.43;;
72864;SDS011;61000;48.120;11.548;2023-03-12T06:16:20;10.45;;;6.13;;
72864;SDS011;61000;48.120;11.548;2023-03-12T06:18:51;7.22;;;5.80;;
72864;SDS011;61000;48.120;11.548;2023-03-12T06:21:20;8.30;;;5.72;;
72864;SDS011;61000;48.120;11.548;2023-03-12T06:23:49;11.32;;;5.75;;
72864;SDS011;61000;48.120;11.548;2023-03-12T06:26:21;6.70;;;5.20;;
72864;SDS011;61000;48.120;11.548;2023-03-12T06:28:51;7.15;;;5.80;;
72864;SDS011;61000;48.120;11.548;2023-03-12T06:31:18;6.85;;;4.95;;
72864;SDS011;61000;48.120;11.548;2023-03-12T06:33:46;6.35;;;5.07;;
72864;SDS011;61000;48.120;11.548;2023-03-12T06:36:13;6.80;;;5.88;;
72864;SDS011;61000;48.120;11.548;2023-03-12T06:38:40;6.18;;;4.95;;
72864;SDS011;61000;48.120;11.548;2023-03-12T06:41:08;7.45;;;4.88;;
72864;SDS011;61000;48.120;11.548;2023-03-12T06:43:36;6.22;;;4.60;;
72864;SDS011;61000;48.120;11.548;2023-03-12T06:46:06;7.15;;;4.22;;
72864;SDS011;61000;48.120;11.548;2023-03-12T06:48:34;5.25;;;4.63;;
72864;SDS011;61000;48.120;11.548;2023-03-12T06:51:01;5.82;;;4.30;;
72864;SDS011;61000;48.120;11.548;2023-03-12T06:53:29;5.28;;;4.10;;
72864;SDS011;61000;48.120;11.548;2023-03-12T06:55:56;5.82;;;4.13;;
72864;SDS011;61000;48.120;11.548;2023-03-12T06:58:22;4.95;;;3.85;;
72864;SDS011;61000;48.120;11.548;2023-03-12T07:00:49;4.05;;;3.30;;
72864;SDS011;61000;48.120;11.548;2023-03-12T07:03:18;5.03;;;3.90;;
72864;SDS011;61000;48.120;11.548;2023-03-12T07:05:45;5.18;;;3.90;;
72864;SDS011;61000;48.120;11.548;2023-03-12T07:08:14;6.05;;;3.20;;
72864;SDS011;61000;48.120;11.548;2023-03-12T07:10:41;5.45;;;3.55;;
72864;SDS011;61000;48.120;11.548;2023-03-12T07:13:07;4.30;;;3.90;;
72864;SDS011;61000;48.120;11.548;2023-03-12T07:15:34;5.00;;;3.25;;
72864;SDS011;61000;48.120;11.548;2023-03-12T07:18:02;3.35;;;2.95;;
72864;SDS011;61000;48.120;11.548;2023-03-12T07:20:31;3.88;;;3.13;;
72864;SDS011;61000;48.120;11.548;2023-03-12T07:22:58;4.20;;;3.35;;
72864;SDS011;61000;48.120;11.548;2023-03-12T07:25:25;4.85;;;3.17;;
72864;SDS011;61000;48.120;11.548;2023-03-12T07:27:52;5.43;;;3.50;;
72864;SDS011;61000;48.120;11.548;2023-03-12T07:30:19;5.22;;;3.20;;
72864;SDS011;61000;48.120;11.548;2023-03-12T07:32:46;5.35;;;3.08;;
72864;SDS011;61000;48.120;11.548;2023-03-12T07:35:13;3.13;;;2.83;;
72864;SDS011;61000;48.120;11.548;2023-03-12T07:37:41;4.63;;;3.10;;
72864;SDS011;61000;48.120;11.548;2023-03-12T07:40:09;3.58;;;3.05;;
72864;SDS011;61000;48.120;11.548;2023-03-12T07:42:36;4.05;;;3.05;;
72864;SDS011;61000;48.120;11.548;2023-03-12T07:45:05;5.32;;;2.97;;
72864;SDS011;61000;48.120;11.548;2023-03-12T07:47:33;3.60;;;2.95;;
72864;SDS011;61000;48.120;11.548;2023-03-12T07:49:59;3.20;;;2.92;;
72864;SDS011;61000;48.120;11.548;2023-03-12T07:52:27;3.47;;;2.63;;
72864;SDS011;61000;48.120;11.548;2023-03-12T07:54:55;3.45;;;3.15;;
72864;SDS011;61000;48.120;11.548;2023-03-12T07:57:22;5.22;;;3.30;;
72864;SDS011;61000;48.120;11.548;2023-03-12T07:59:49;4.60;;;3.15;;
72864;SDS011;61000;48.120;11.548;2023-03-12T08:02:16;3.80;;;3.13;;
72864;SDS011;61000;48.120;11.548;2023-03-12T08:04:44;3.10;;;2.80;;
72864;SDS011;61000;48.120;11.548;2023-03-12T08:07:11;4.68;;;2.58;;
72864;SDS011;61000;48.120;11.548;2023-03-12T08:09:38;3.15;;;2.70;;
72864;SDS011;61000;48.120;11.548;2023-03-12T08:12:06;3.33;;;2.88;;
72864;SDS011;61000;48.120;11.548;2023-03-12T08:14:34;3.70;;;3.28;;
72864;SDS011;61000;48.120;11.548;2023-03-12T08:17:01;5.07;;;3.35;;
72864;SDS011;61000;48.120;11.548;2023-03-12T08:19:28;5.70;;;3.17;;
72864;SDS011;61000;48.120;11.548;2023-03-12T08:21:55;4.25;;;3.17;;
72864;SDS011;61000;48.120;11.548;2023-03-12T08:24:22;4.20;;;3.35;;
72864;SDS011;61000;48.120;11.548;2023-03-12T08:26:49;4.53;;;3.53;;
72864;SDS011;61000;48.120;11.548;2023-03-12T08:29:17;3.95;;;3.55;;
72864;SDS011;61000;48.120;11.548;2023-03-12T08:31:44;3.53;;;3.20;;
72864;SDS011;61000;48.120;11.548;2023-03-12T08:34:11;5.05;;;3.47;;
72864;SDS011;61000;48.120;11.548;2023-03-12T08:36:38;4.30;;;3.38;;
72864;SDS011;61000;48.120;11.548;2023-03-12T08:39:04;4.78;;;3.13;;
72864;SDS011;61000;48.120;11.548;2023-03-12T08:41:31;4.20;;;2.90;;
72864;SDS011;61000;48.120;11.548;2023-03-12T08:43:58;3.72;;;3.17;;
72864;SDS011;61000;48.120;11.548;2023-03-12T08:46:27;6.03;;;3.38;;
72864;SDS011;61000;48.120;11.548;2023-03-12T08:48:54;4.45;;;3.17;;
72864;SDS011;61000;48.120;11.548;2023-03-12T08:51:21;4.35;;;3.10;;
72864;SDS011;61000;48.120;11.548;2023-03-12T08:53:48;4.70;;;3.13;;
72864;SDS011;61000;48.120;11.548;2023-03-12T08:56:14;3.45;;;3.05;;
72864;SDS011;61000;48.120;11.548;2023-03-12T08:58:41;3.30;;;3.00;;
72864;SDS011;61000;48.120;11.548;2023-03-12T09:01:09;4.20;;;3.55;;
72864;SDS011;61000;48.120;11.548;2023-03-12T09:03:38;4.95;;;3.85;;
72864;SDS011;61000;48.120;11.548;2023-03-12T09:06:07;3.90;;;3.35;;
72864;SDS011;61000;48.120;11.548;2023-03-12T09:08:37;5.32;;;3.78;;
72864;SDS011;61000;48.120;11.548;2023-03-12T09:11:04;4.15;;;3.75;;
72864;SDS011;61000;48.120;11.548;2023-03-12T09:13:33;5.38;;;4.15;;
72864;SDS011;61000;48.120;11.548;2023-03-12T09:16:00;5.05;;;3.75;;
72864;SDS011;61000;48.120;11.548;2023-03-12T09:18:29;5.10;;;3.63;;
72864;SDS011;61000;48.120;11.548;2023-03-12T09:20:58;4.88;;;4.05;;
72864;SDS011;61000;48.120;11.548;2023-03-12T09:23:25;4.05;;;3.65;;
72864;SDS011;61000;48.120;11.548;2023-03-12T09:25:52;3.65;;;3.35;;
72864;SDS011;61000;48.120;11.548;2023-03-12T09:28:20;3.95;;;3.58;;
72864;SDS011;61000;48.120;11.548;2023-03-12T09:30:47;5.15;;;4.10;;
72864;SDS011;61000;48.120;11.548;2023-03-12T09:33:14;4.03;;;3.63;;
72864;SDS011;61000;48.120;11.548;2023-03-12T09:35:42;4.35;;;3.42;;
72864;SDS011;61000;48.120;11.548;2023-03-12T09:38:13;3.92;;;3.30;;
72864;SDS011;61000;48.120;11.548;2023-03-12T09:40:42;4.85;;;3.92;;
72864;SDS011;61000;48.120;11.548;2023-03-12T09:43:14;4.10;;;3.70;;
72864;SDS011;61000;48.120;11.548;2023-03-12T09:45:46;3.75;;;3.33;;
72864;SDS011;61000;48.120;11.548;2023-03-12T09:48:14;4.70;;;3.70;;
72864;SDS011;61000;48.120;11.548;2023-03-12T09:50:44;3.88;;;3.47;;
72864;SDS011;61000;48.120;11.548;2023-03-12T09:53:15;4.47;;;3.45;;
72864;SDS011;61000;48.120;11.548;2023-03-12T09:55:48;4.25;;;3.08;;
72864;SDS011;61000;48.120;11.548;2023-03-12T09:58:18;6.97;;;4.90;;
72864;SDS011;61000;48.120;11.548;2023-03-12T10:00:50;4.55;;;4.15;;
72864;SDS011;61000;48.120;11.548;2023-03-12T10:03:26;5.88;;;4.68;;
72864;SDS011;61000;48.120;11.548;2023-03-12T10:06:12;5.43;;;4.10;;
72864;SDS011;61000;48.120;11.548;2023-03-12T10:08:46;3.55;;;3.25;;
72864;SDS011;61000;48.120;11.548;2023-03-12T10:11:25;5.53;;;4.10;;
72864;SDS011;61000;48.120;11.548;2023-03-12T10:14:07;3.45;;;3.15;;
72864;SDS011;61000;48.120;11.548;2023-03-12T10:16:48;3.70;;;3.35;;
72864;SDS011;61000;48.120;11.548;2023-03-12T10:19:34;3.58;;;3.25;;
72864;SDS011;61000;48.120;11.548;2023-03-12T10:22:12;3.30;;;3.00;;
72864;SDS011;61000;48.120;11.548;2023-03-12T10:24:50;8.32;;;3.15;;
72864;SDS011;61000;48.120;11.548;2023-03-12T10:27:24;3.65;;;2.78;;
72864;SDS011;61000;48.120;11.548;2023-03-12T10:29:54;3.53;;;3.00;;
72864;SDS011;61000;48.120;11.548;2023-03-12T10:32:24;4.03;;;2.78;;
72864;SDS011;61000;48.120;11.548;2023-03-12T10:34:57;2.92;;;2.67;;
72864;SDS011;61000;48.120;11.548;2023-03-12T10:37:29;4.00;;;3.70;;
72864;SDS011;61000;48.120;11.548;2023-03-12T10:40:00;5.38;;;4.70;;
72864;SDS011;61000;48.120;11.548;2023-03-12T10:42:29;7.07;;;5.00;;
72864;SDS011;61000;48.120;11.548;2023-03-12T10:44:58;5.68;;;4.20;;
72864;SDS011;61000;48.120;11.548;2023-03-12T10:47:32;12.15;;;6.55;;
72864;SDS011;61000;48.120;11.548;2023-03-12T10:50:10;10.98;;;6.30;;
72864;SDS011;61000;48.120;11.548;2023-03-12T10:52:41;16.25;;;7.72;;
72864;SDS011;61000;48.120;11.548;2023-03-12T10:55:11;5.55;;;3.63;;
72864;SDS011;61000;48.120;11.548;2023-03-12T10:57:44;6.88;;;4.50;;
72864;SDS011;61000;48.120;11.548;2023-03-12T11:00:16;6.22;;;4.47;;
72864;SDS011;61000;48.120;11.548;2023-03-12T11:02:45;13.20;;;6.43;;
72864;SDS011;61000;48.120;11.548;2023-03-12T11:05:21;7.43;;;4.13;;
72864;SDS011;61000;48.120;11.548;2023-03-12T11:07:50;4.78;;;3.30;;
72864;SDS011;61000;48.120;11.548;2023-03-12T11:10:20;9.82;;;5.28;;
72864;SDS011;61000;48.120;11.548;2023-03-12T11:12:56;5.53;;;4.20;;
72864;SDS011;61000;48.120;11.548;2023-03-12T11:15:29;4.00;;;3.33;;
72864;SDS011;61000;48.120;11.548;2023-03-12T11:20:51;3.65;;;3.05;;
72864;SDS011;61000;48.120;11.548;2023-03-12T11:23:21;2.95;;;2.70;;
72864;SDS011;61000;48.120;11.548;2023-03-12T11:25:53;3.67;;;2.80;;
72864;SDS011;61000;48.120;11.548;2023-03-12T11:28:24;2.60;;;2.33;;
72864;SDS011;61000;48.120;11.548;2023-03-12T11:31:00;2.50;;;2.30;;
72864;SDS011;61000;48.120;11.548;2023-03-12T11:33:28;3.97;;;2.67;;
72864;SDS011;61000;48.120;11.548;2023-03-12T11:36:02;2.70;;;2.42;;
72864;SDS011;61000;48.120;11.548;2023-03-12T11:38:40;2.95;;;2.70;;
72864;SDS011;61000;48.120;11.548;2023-03-12T11:41:21;3.15;;;2.83;;
72864;SDS011;61000;48.120;11.548;2023-03-12T11:44:06;2.58;;;2.38;;
72864;SDS011;61000;48.120;11.548;2023-03-12T11:46:48;2.42;;;2.08;;
72864;SDS011;61000;48.120;11.548;2023-03-12T11:49:25;3.85;;;2.70;;
72864;SDS011;61000;48.120;11.548;2023-03-12T11:52:01;2.50;;;2.30;;
72864;SDS011;61000;48.120;11.548;2023-03-12T11:54:35;4.40;;;3.67;;
72864;SDS011;61000;48.120;11.548;2023-03-12T11:57:25;6.32;;;4.57;;
72864;SDS011;61000;48.120;11.548;2023-03-12T12:00:02;4.53;;;3.05;;
72864;SDS011;61000;48.120;11.548;2023-03-12T12:05:30;4.85;;;4.07;;
72864;SDS011;61000;48.120;11.548;2023-03-12T12:08:09;5.70;;;4.55;;
72864;SDS011;61000;48.120;11.548;2023-03-12T12:10:55;5.22;;;3.95;;
72864;SDS011;61000;48.120;11.548;2023-03-12T12:13:31;7.28;;;5.03;;
72864;SDS011;61000;48.120;11.548;2023-03-12T12:16:12;5.07;;;4.35;;
72864;SDS011;61000;48.120;11.548;2023-03-12T12:19:00;3.75;;;3.33;;
72864;SDS011;61000;48.120;11.548;2023-03-12T12:21:39;4.22;;;3.72;;
72864;SDS011;61000;48.120;11.548;2023-03-12T12:24:17;4.50;;;3.83;;
72864;SDS011;61000;48.120;11.548;2023-03-12T12:26:55;5.93;;;4.18;;
72864;SDS011;61000;48.120;11.548;2023-03-12T12:29:34;7.30;;;4.97;;
72864;SDS011;61000;48.120;11.548;2023-03-12T12:32:11;3.90;;;3.53;;
72864;SDS011;61000;48.120;11.548;2023-03-12T12:34:46;4.32;;;3.10;;
72864;SDS011;61000;48.120;11.548;2023-03-12T12:37:43;3.95;;;3.05;;
72864;SDS011;61000;48.120;11.548;2023-03-12T12:40:16;3.15;;;2.83;;
72864;SDS011;61000;48.120;11.548;2023-03-12T12:42:48;3.67;;;3.00;;
72864;SDS011;61000;48.120;11.548;2023-03-12T12:45:23;5.13;;;3.20;;
72864;SDS011;61000;48.120;11.548;2023-03-12T12:47:52;4.97;;;3.22;;
72864;SDS011;61000;48.120;11.548;2023-03-12T12:50:23;5.40;;;3.05;;
72864;SDS011;61000;48.120;11.548;2023-03-12T12:52:56;4.20;;;3.25;;
72864;SDS011;61000;48.120;11.548;2023-03-12T12:55:29;4.68;;;3.63;;
72864;SDS011;61000;48.120;11.548;2023-03-12T12:58:00;4.25;;;3.53;;
72864;SDS011;61000;48.120;11.548;2023-03-12T13:00:44;7.60;;;3.35;;
72864;SDS011;61000;48.120;11.548;2023-03-12T13:03:15;4.30;;;3.90;;
72864;SDS011;61000;48.120;11.548;2023-03-12T13:05:44;4.78;;;3.63;;
72864;SDS011;61000;48.120;11.548;2023-03-12T13:08:35;4.95;;;3.70;;
72864;SDS011;61000;48.120;11.548;2023-03-12T13:11:37;4.45;;;4.05;;
72864;SDS011;61000;48.120;11.548;2023-03-12T13:14:13;6.07;;;4.60;;
72864;SDS011;61000;48.120;11.548;2023-03-12T13:17:06;5.70;;;3.90;;
72864;SDS011;61000;48.120;11.548;2023-03-12T13:19:43;6.90;;;5.10;;
72864;SDS011;61000;48.120;11.548;2023-03-12T13:22:14;7.88;;;4.85;;
72864;SDS011;61000;48.120;11.548;2023-03-12T13:24:53;5.18;;;4.30;;
72864;SDS011;61000;48.120;11.548;2023-03-12T13:27:28;6.60;;;5.20;;
72864;SDS011;61000;48.120;11.548;2023-03-12T13:29:56;7.60;;;5.10;;
72864;SDS011;61000;48.120;11.548;2023-03-12T13:32:50;6.55;;;4.85;;
72864;SDS011;61000;48.120;11.548;2023-03-12T13:35:35;12.07;;;5.45;;
72864;SDS011;61000;48.120;11.548;2023-03-12T13:38:05;5.82;;;4.22;;
72864;SDS011;61000;48.120;11.548;2023-03-12T13:40:33;9.60;;;5.82;;
72864;SDS011;61000;48.120;11.548;2023-03-12T13:46:20;8.77;;;5.10;;
72864;SDS011;61000;48.120;11.548;2023-03-12T13:49:01;9.88;;;5.60;;
72864;SDS011;61000;48.120;11.548;2023-03-12T13:51:31;10.63;;;5.80;;
72864;SDS011;61000;48.120;11.548;2023-03-12T13:53:58;9.38;;;4.90;;
72864;SDS011;61000;48.120;11.548;2023-03-12T13:56:28;10.32;;;5.57;;
72864;SDS011;61000;48.120;11.548;2023-03-12T13:58:58;6.80;;;4.85;;
72864;SDS011;61000;48.120;11.548;2023-03-12T14:01:27;7.72;;;5.07;;
72864;SDS011;61000;48.120;11.548;2023-03-12T14:03:57;6.82;;;4.80;;
72864;SDS011;61000;48.120;11.548;2023-03-12T14:06:31;6.15;;;3.97;;
72864;SDS011;61000;48.120;11.548;2023-03-12T14:09:13;3.42;;;2.92;;
72864;SDS011;61000;48.120;11.548;2023-03-12T14:11:50;6.65;;;3.88;;
72864;SDS011;61000;48.120;11.548;2023-03-12T14:14:35;5.70;;;4.30;;
72864;SDS011;61000;48.120;11.548;2023-03-12T14:17:13;3.80;;;3.10;;
72864;SDS011;61000;48.120;11.548;2023-03-12T14:19:45;5.68;;;3.40;;
72864;SDS011;61000;48.120;11.548;2023-03-12T14:22:15;4.35;;;3.95;;
72864;SDS011;61000;48.120;11.548;2023-03-12T14:24:47;5.63;;;4.18;;
72864;SDS011;61000;48.120;11.548;2023-03-12T14:27:17;7.03;;;4.13;;
72864;SDS011;61000;48.120;11.548;2023-03-12T14:29:47;6.05;;;2.88;;
72864;SDS011;61000;48.120;11.548;2023-03-12T14:32:18;5.90;;;3.33;;
72864;SDS011;61000;48.120;11.548;2023-03-12T14:34:50;6.97;;;3.58;;
72864;SDS011;61000;48.120;11.548;2023-03-12T14:37:21;3.95;;;3.08;;
72864;SDS011;61000;48.120;11.548;2023-03-12T14:39:53;5.72;;;2.63;;
72864;SDS011;61000;48.120;11.548;2023-03-12T14:42:26;3.78;;;2.45;;
72864;SDS011;61000;48.120;11.548;2023-03-12T14:44:56;3.50;;;2.30;;
72864;SDS011;61000;48.120;11.548;2023-03-12T14:47:25;6.70;;;2.78;;
72864;SDS011;61000;48.120;11.548;2023-03-12T14:49:54;2.72;;;2.15;;
72864;SDS011;61000;48.120;11.548;2023-03-12T14:52:23;6.20;;;3.78;;
72864;SDS011;61000;48.120;11.548;2023-03-12T14:54:53;7.78;;;3.80;;
72864;SDS011;61000;48.120;11.548;2023-03-12T14:57:21;5.57;;;2.33;;
72864;SDS011;61000;48.120;11.548;2023-03-12T14:59:51;2.30;;;1.98;;